Time;durP1;ratioP1;P1;durP2;ratioP2;P2;SDS_P1;SDS_P2;PMS_P1;PMS_P2;Temp;Humidity;BMP_temperature;BMP_pressure;BME280_temperature;BME280_humidity;BME280_pressure;Samples;Min_cycle;Max_cycle;Signal;HPM_P1;HPM_P2
2021/05/22 00:01:31;;;;;;;8.50;2.00;;;;;;;;;;4417615;32;20161;-74
2021/05/22 00:03:57;;;;;;;10.23;1.87;;;;;;;;;;4433280;32;20462;-72
2021/05/22 00:06:22;;;;;;;12.98;1.87;;;;;;;;;;4418817;32;20259;-73
2021/05/22 00:08:47;;;;;;;9.43;1.45;;;;;;;;;;4417035;32;20165;-72
2021/05/22 00:11:13;;;;;;;11.07;1.87;;;;;;;;;;4416169;32;20184;-72
2021/05/22 00:13:38;;;;;;;11.05;1.80;;;;;;;;;;4431532;32;20134;-73
2021/05/22 00:16:03;;;;;;;9.82;1.90;;;;;;;;;;4417257;32;20229;-73
2021/05/22 00:18:28;;;;;;;9.95;1.70;;;;;;;;;;4431993;32;20431;-73
2021/05/22 00:20:54;;;;;;;7.55;1.33;;;;;;;;;;4420321;32;20184;-73
2021/05/22 00:23:19;;;;;;;12.88;1.70;;;;;;;;;;4433936;32;20183;-72
2021/05/22 00:25:44;;;;;;;9.13;1.83;;;;;;;;;;4435353;32;20133;-72
2021/05/22 00:28:09;;;;;;;11.90;2.40;;;;;;;;;;4434522;32;20408;-73
2021/05/22 00:30:34;;;;;;;9.88;2.12;;;;;;;;;;4421330;32;20578;-72
2021/05/22 00:32:59;;;;;;;9.35;1.87;;;;;;;;;;4434574;32;20125;-72
2021/05/22 00:35:25;;;;;;;8.35;1.73;;;;;;;;;;4436217;32;20206;-72
2021/05/22 00:37:50;;;;;;;6.40;1.75;;;;;;;;;;4421773;32;20299;-71
2021/05/22 00:40:15;;;;;;;8.48;1.40;;;;;;;;;;4433767;32;20137;-71
2021/05/22 00:42:41;;;;;;;5.60;1.50;;;;;;;;;;4435586;32;20240;-71
2021/05/22 00:45:09;;;;;;;12.57;1.75;;;;;;;;;;4434170;32;20133;-72
2021/05/22 00:47:40;;;;;;;14.87;2.08;;;;;;;;;;4419007;32;20216;-71
2021/05/22 00:50:07;;;;;;;10.52;2.05;;;;;;;;;;4419474;32;20524;-71
2021/05/22 00:52:32;;;;;;;9.50;2.00;;;;;;;;;;4406154;32;20582;-71
2021/05/22 00:54:58;;;;;;;5.10;1.52;;;;;;;;;;4403928;32;20185;-70
2021/05/22 00:57:23;;;;;;;10.00;1.80;;;;;;;;;;4403738;32;20605;-71
2021/05/22 00:59:48;;;;;;;9.93;2.12;;;;;;;;;;4420290;32;20522;-71
2021/05/22 01:02:19;;;;;;;10.60;2.20;;;;;;;;;;4420263;32;20137;-71
2021/05/22 01:04:45;;;;;;;7.40;1.60;;;;;;;;;;4418751;32;20176;-72
2021/05/22 01:07:10;;;;;;;8.63;2.42;;;;;;;;;;4418549;32;20173;-70
2021/05/22 01:09:35;;;;;;;8.30;1.87;;;;;;;;;;4417402;32;20129;-70
2021/05/22 01:12:01;;;;;;;7.37;1.60;;;;;;;;;;4417684;32;20292;-71
2021/05/22 01:14:38;;;;;;;7.07;1.65;;;;;;;;;;4424672;32;20538;-70
2021/05/22 01:17:04;;;;;;;15.97;2.17;;;;;;;;;;4433120;32;20221;-71
2021/05/22 01:19:42;;;;;;;13.33;2.27;;;;;;;;;;4433106;32;20160;-70
2021/05/22 01:22:08;;;;;;;6.30;1.35;;;;;;;;;;4433645;32;20164;-71
2021/05/22 01:24:43;;;;;;;7.22;1.58;;;;;;;;;;4435433;32;20157;-71
2021/05/22 01:27:10;;;;;;;9.65;2.10;;;;;;;;;;4420233;32;20187;-71
2021/05/22 01:29:35;;;;;;;12.23;2.42;;;;;;;;;;4419140;32;20183;-71
2021/05/22 01:32:00;;;;;;;11.07;1.87;;;;;;;;;;4419023;32;20201;-72
2021/05/22 01:34:26;;;;;;;4.30;1.33;;;;;;;;;;4420854;32;20184;-72
2021/05/22 01:36:51;;;;;;;7.68;1.50;;;;;;;;;;4419011;32;20617;-72
2021/05/22 01:39:16;;;;;;;7.07;1.42;;;;;;;;;;4434060;32;20156;-72
2021/05/22 01:41:42;;;;;;;7.35;1.52;;;;;;;;;;4418710;32;20162;-72
2021/05/22 01:44:09;;;;;;;11.80;1.77;;;;;;;;;;4433090;32;20336;-72
2021/05/22 01:46:35;;;;;;;6.93;1.50;;;;;;;;;;4419453;32;20157;-72
2021/05/22 01:49:00;;;;;;;5.10;1.52;;;;;;;;;;4418698;32;20194;-72
2021/05/22 01:51:25;;;;;;;7.30;1.92;;;;;;;;;;4434270;32;20160;-72
2021/05/22 01:53:51;;;;;;;6.97;1.50;;;;;;;;;;4434324;32;20304;-72
2021/05/22 01:56:19;;;;;;;7.32;1.85;;;;;;;;;;4434061;32;20153;-72
2021/05/22 01:58:44;;;;;;;8.27;1.55;;;;;;;;;;4433313;32;20129;-72
2021/05/22 02:01:11;;;;;;;8.85;1.77;;;;;;;;;;4419105;32;20169;-72
2021/05/22 02:03:40;;;;;;;11.38;1.55;;;;;;;;;;4434564;32;20137;-72
2021/05/22 02:06:07;;;;;;;10.35;2.35;;;;;;;;;;4433050;32;20194;-71
2021/05/22 02:08:38;;;;;;;6.60;1.37;;;;;;;;;;4419152;32;20200;-72
2021/05/22 02:11:03;;;;;;;10.88;1.77;;;;;;;;;;4433511;32;20138;-72
2021/05/22 02:13:29;;;;;;;8.32;1.40;;;;;;;;;;4421036;32;20187;-71
2021/05/22 02:15:58;;;;;;;4.25;1.45;;;;;;;;;;4434001;32;20133;-71
2021/05/22 02:18:25;;;;;;;8.45;1.80;;;;;;;;;;4433482;32;20240;-71
2021/05/22 02:20:52;;;;;;;10.52;2.30;;;;;;;;;;4433870;32;20219;-70
2021/05/22 02:23:18;;;;;;;5.90;1.25;;;;;;;;;;4433251;32;20244;-71
2021/05/22 02:25:43;;;;;;;8.35;1.30;;;;;;;;;;4435580;32;20268;-71
2021/05/22 02:28:09;;;;;;;7.35;1.45;;;;;;;;;;4435010;32;20200;-71
2021/05/22 02:30:35;;;;;;;7.55;1.27;;;;;;;;;;4421066;32;20212;-71
2021/05/22 02:33:01;;;;;;;9.10;1.73;;;;;;;;;;4432935;32;20177;-70
2021/05/22 02:35:27;;;;;;;9.82;1.85;;;;;;;;;;4434113;32;20137;-71
2021/05/22 02:37:53;;;;;;;8.80;1.73;;;;;;;;;;4419551;32;20190;-72
2021/05/22 02:40:27;;;;;;;10.68;1.85;;;;;;;;;;4433139;32;20205;-71
2021/05/22 02:42:57;;;;;;;6.22;1.77;;;;;;;;;;4433266;32;20578;-71
2021/05/22 02:45:24;;;;;;;8.35;1.73;;;;;;;;;;4434252;32;20163;-70
2021/05/22 02:47:51;;;;;;;7.68;1.75;;;;;;;;;;4418346;32;20243;-72
2021/05/22 02:50:18;;;;;;;9.40;1.75;;;;;;;;;;4430883;32;20145;-71
2021/05/22 02:52:43;;;;;;;8.18;1.65;;;;;;;;;;4417931;32;20166;-71
2021/05/22 02:55:09;;;;;;;10.10;2.37;;;;;;;;;;4432409;32;20141;-71
2021/05/22 02:57:35;;;;;;;6.43;1.80;;;;;;;;;;4432648;32;20203;-71
2021/05/22 03:00:00;;;;;;;10.25;1.70;;;;;;;;;;4433168;32;20138;-71
2021/05/22 03:02:26;;;;;;;7.97;1.60;;;;;;;;;;4420466;32;20161;-71
2021/05/22 03:04:51;;;;;;;10.02;1.77;;;;;;;;;;4418706;32;20200;-72
2021/05/22 03:07:18;;;;;;;9.25;1.42;;;;;;;;;;4419136;32;20161;-71
2021/05/22 03:09:44;;;;;;;6.50;1.50;;;;;;;;;;4419307;32;20221;-72
2021/05/22 03:12:10;;;;;;;7.80;1.70;;;;;;;;;;4420742;32;20225;-72
2021/05/22 03:14:35;;;;;;;6.13;1.60;;;;;;;;;;4418707;32;20169;-72
2021/05/22 03:17:00;;;;;;;8.07;1.87;;;;;;;;;;4434511;32;20168;-73
2021/05/22 03:19:25;;;;;;;3.40;1.27;;;;;;;;;;4419145;32;20184;-72
2021/05/22 03:21:51;;;;;;;7.90;1.85;;;;;;;;;;4418573;32;20246;-72
2021/05/22 03:24:16;;;;;;;7.55;1.55;;;;;;;;;;4418419;32;20161;-72
2021/05/22 03:26:41;;;;;;;9.30;1.85;;;;;;;;;;4432853;32;20160;-72
2021/05/22 03:29:06;;;;;;;4.80;2.20;;;;;;;;;;4431897;32;20130;-72
2021/05/22 03:31:31;;;;;;;7.47;2.13;;;;;;;;;;4432682;32;20138;-72
2021/05/22 03:33:56;;;;;;;10.17;2.30;;;;;;;;;;4432748;32;20188;-73
2021/05/22 03:36:22;;;;;;;8.18;2.05;;;;;;;;;;4418907;32;20211;-73
2021/05/22 03:38:47;;;;;;;5.57;2.03;;;;;;;;;;4431241;32;20137;-71
2021/05/22 03:41:13;;;;;;;5.82;2.20;;;;;;;;;;4432233;32;20292;-71
2021/05/22 03:43:38;;;;;;;7.10;1.97;;;;;;;;;;4419883;32;20161;-71
2021/05/22 03:46:03;;;;;;;5.32;2.17;;;;;;;;;;4433173;32;20155;-72
2021/05/22 03:48:28;;;;;;;9.80;2.15;;;;;;;;;;4434111;32;20542;-71
2021/05/22 03:50:54;;;;;;;9.70;1.98;;;;;;;;;;4433375;32;20250;-71
2021/05/22 03:53:20;;;;;;;10.37;2.60;;;;;;;;;;4434341;32;20548;-71
2021/05/22 03:55:45;;;;;;;8.15;2.42;;;;;;;;;;4421793;32;20165;-72
2021/05/22 03:58:10;;;;;;;9.70;2.45;;;;;;;;;;4435504;32;20181;-72
2021/05/22 04:00:35;;;;;;;10.75;2.25;;;;;;;;;;4423845;32;20173;-70
2021/05/22 04:03:00;;;;;;;4.62;2.03;;;;;;;;;;4435828;32;20236;-71
2021/05/22 04:05:26;;;;;;;7.75;2.35;;;;;;;;;;4436417;32;20125;-71
2021/05/22 04:07:52;;;;;;;8.10;2.53;;;;;;;;;;4435098;32;20209;-71
2021/05/22 04:10:17;;;;;;;8.63;2.35;;;;;;;;;;4421886;32;20161;-72
2021/05/22 04:12:42;;;;;;;8.35;2.05;;;;;;;;;;4422214;32;20161;-72
2021/05/22 04:15:08;;;;;;;8.00;2.47;;;;;;;;;;4427301;32;20491;-72
2021/05/22 04:17:33;;;;;;;8.60;2.20;;;;;;;;;;4406056;32;20174;-72
2021/05/22 04:19:58;;;;;;;11.00;2.28;;;;;;;;;;4419706;32;20551;-71
2021/05/22 04:22:23;;;;;;;10.63;3.08;;;;;;;;;;4406835;32;20222;-71
2021/05/22 04:24:48;;;;;;;7.53;2.47;;;;;;;;;;4412097;32;20664;-71
2021/05/22 04:27:14;;;;;;;11.15;2.58;;;;;;;;;;4435556;32;20495;-71
2021/05/22 04:29:39;;;;;;;7.68;2.70;;;;;;;;;;4434421;32;20169;-71
2021/05/22 04:32:05;;;;;;;7.37;2.03;;;;;;;;;;4419684;32;20181;-72
2021/05/22 04:34:30;;;;;;;10.43;2.25;;;;;;;;;;4434348;32;20684;-70
2021/05/22 04:36:55;;;;;;;4.55;1.62;;;;;;;;;;4420941;32;20288;-72
2021/05/22 04:39:20;;;;;;;5.37;1.80;;;;;;;;;;4435599;32;20613;-70
2021/05/22 04:41:46;;;;;;;6.05;2.30;;;;;;;;;;4437963;32;20160;-70
2021/05/22 04:44:11;;;;;;;8.48;2.60;;;;;;;;;;4437365;32;20171;-70
2021/05/22 04:46:37;;;;;;;8.45;2.37;;;;;;;;;;4438073;32;20130;-71
2021/05/22 04:49:02;;;;;;;7.62;2.33;;;;;;;;;;4437846;32;20134;-69
2021/05/22 04:51:28;;;;;;;7.45;2.40;;;;;;;;;;4423866;32;20183;-72
2021/05/22 04:54:00;;;;;;;10.07;2.65;;;;;;;;;;4436723;32;20195;-71
2021/05/22 04:56:25;;;;;;;13.62;2.90;;;;;;;;;;4437257;32;20153;-70
2021/05/22 04:58:50;;;;;;;6.40;2.78;;;;;;;;;;4436887;32;20191;-72
2021/05/22 05:01:15;;;;;;;6.03;2.50;;;;;;;;;;4436127;32;20161;-71
2021/05/22 05:03:40;;;;;;;11.12;3.40;;;;;;;;;;4436440;32;20290;-70
2021/05/22 05:06:06;;;;;;;12.87;3.17;;;;;;;;;;4436359;32;20225;-71
2021/05/22 05:08:31;;;;;;;7.05;2.72;;;;;;;;;;4435934;32;20137;-71
2021/05/22 05:10:58;;;;;;;8.93;3.15;;;;;;;;;;4423336;32;20165;-71
2021/05/22 05:13:23;;;;;;;9.13;3.40;;;;;;;;;;4420997;32;20225;-71
2021/05/22 05:15:48;;;;;;;7.82;2.83;;;;;;;;;;4436211;32;20133;-72
2021/05/22 05:18:13;;;;;;;10.18;3.47;;;;;;;;;;4435645;32;20157;-72
2021/05/22 05:20:38;;;;;;;10.32;3.58;;;;;;;;;;4420503;32;20190;-72
2021/05/22 05:23:04;;;;;;;6.80;3.25;;;;;;;;;;4421780;32;20264;-73
2021/05/22 05:25:29;;;;;;;6.37;3.42;;;;;;;;;;4434979;32;20592;-72
2021/05/22 05:27:54;;;;;;;9.35;3.42;;;;;;;;;;4436490;32;20206;-72
2021/05/22 05:30:19;;;;;;;7.23;2.93;;;;;;;;;;4435052;32;20202;-71
2021/05/22 05:32:45;;;;;;;8.35;3.30;;;;;;;;;;4418391;32;20150;-72
2021/05/22 05:35:10;;;;;;;9.38;3.50;;;;;;;;;;4430862;32;20280;-72
2021/05/22 05:37:36;;;;;;;8.02;3.05;;;;;;;;;;4421050;32;20157;-71
2021/05/22 05:40:01;;;;;;;7.37;3.37;;;;;;;;;;4434708;32;20200;-71
2021/05/22 05:42:26;;;;;;;7.90;3.67;;;;;;;;;;4420492;32;20546;-71
2021/05/22 05:44:51;;;;;;;9.70;4.25;;;;;;;;;;4419680;32;20201;-71
2021/05/22 05:47:17;;;;;;;10.98;4.00;;;;;;;;;;4418988;32;20209;-70
2021/05/22 05:49:42;;;;;;;13.70;4.85;;;;;;;;;;4419034;32;20138;-71
2021/05/22 05:52:08;;;;;;;10.95;5.15;;;;;;;;;;4420804;32;20580;-71
2021/05/22 05:54:34;;;;;;;13.40;5.05;;;;;;;;;;4419069;32;20161;-71
2021/05/22 05:56:59;;;;;;;6.68;3.78;;;;;;;;;;4419369;32;20207;-71
2021/05/22 05:59:24;;;;;;;8.50;3.83;;;;;;;;;;4420275;32;20321;-71
2021/05/22 06:01:49;;;;;;;11.32;4.80;;;;;;;;;;4419128;32;20256;-71
2021/05/22 06:04:14;;;;;;;9.88;3.78;;;;;;;;;;4405183;32;20294;-71
2021/05/22 06:06:39;;;;;;;7.40;3.42;;;;;;;;;;4419168;32;20125;-70
2021/05/22 06:09:05;;;;;;;8.20;3.83;;;;;;;;;;4418609;32;20134;-69
2021/05/22 06:11:32;;;;;;;7.15;3.72;;;;;;;;;;4417673;32;20319;-70
2021/05/22 06:13:58;;;;;;;7.93;3.97;;;;;;;;;;4405213;32;20154;-69
2021/05/22 06:18:53;;;;;;;9.20;3.62;;;;;;;;;;4419748;32;20598;-71
2021/05/22 06:21:18;;;;;;;8.60;3.72;;;;;;;;;;4418102;32;20607;-70
2021/05/22 06:23:43;;;;;;;10.27;5.25;;;;;;;;;;4418302;32;20188;-70
2021/05/22 06:26:08;;;;;;;11.85;4.53;;;;;;;;;;4417472;32;20133;-70
2021/05/22 06:28:34;;;;;;;9.02;5.03;;;;;;;;;;4402927;32;20547;-70
2021/05/22 06:31:04;;;;;;;10.05;4.05;;;;;;;;;;4417532;32;20142;-70
2021/05/22 06:33:30;;;;;;;6.80;3.30;;;;;;;;;;4418410;32;20220;-70
2021/05/22 06:35:55;;;;;;;11.20;4.87;;;;;;;;;;4403182;32;20610;-72
2021/05/22 06:38:20;;;;;;;11.70;4.37;;;;;;;;;;4404884;32;20276;-71
2021/05/22 06:40:46;;;;;;;10.55;4.87;;;;;;;;;;4417311;32;20165;-71
2021/05/22 06:43:11;;;;;;;11.45;4.05;;;;;;;;;;4433753;32;20236;-70
2021/05/22 06:45:41;;;;;;;8.05;4.28;;;;;;;;;;4434129;32;20178;-71
2021/05/22 06:48:07;;;;;;;11.23;4.55;;;;;;;;;;4420412;32;20165;-70
2021/05/22 06:50:33;;;;;;;10.07;4.40;;;;;;;;;;4432326;32;20149;-70
2021/05/22 06:52:58;;;;;;;8.70;4.75;;;;;;;;;;4432906;32;20133;-70
2021/05/22 06:55:23;;;;;;;9.63;4.83;;;;;;;;;;4432490;32;20134;-71
2021/05/22 06:57:48;;;;;;;10.00;4.80;;;;;;;;;;4432543;32;20253;-69
2021/05/22 07:00:14;;;;;;;11.70;5.55;;;;;;;;;;4432409;32;20264;-70
2021/05/22 07:02:39;;;;;;;8.88;4.70;;;;;;;;;;4419853;32;20309;-69
2021/05/22 07:05:04;;;;;;;10.77;4.57;;;;;;;;;;4420236;32;20168;-69
2021/05/22 07:07:30;;;;;;;9.70;4.37;;;;;;;;;;4416957;32;20176;-69
2021/05/22 07:09:55;;;;;;;6.70;3.83;;;;;;;;;;4433850;32;20649;-70
2021/05/22 07:12:20;;;;;;;9.63;4.80;;;;;;;;;;4418950;32;20322;-70
2021/05/22 07:14:45;;;;;;;11.40;5.15;;;;;;;;;;4434472;32;20229;-71
2021/05/22 07:17:10;;;;;;;9.65;4.65;;;;;;;;;;4418810;32;20201;-71
2021/05/22 07:19:35;;;;;;;10.32;4.60;;;;;;;;;;4432675;32;20178;-71
2021/05/22 07:22:01;;;;;;;8.82;4.15;;;;;;;;;;4418822;32;20211;-71
2021/05/22 07:24:26;;;;;;;11.88;5.20;;;;;;;;;;4433423;32;20257;-71
2021/05/22 07:26:52;;;;;;;11.05;4.70;;;;;;;;;;4418931;32;20196;-71
2021/05/22 07:29:17;;;;;;;10.27;4.35;;;;;;;;;;4429679;32;20157;-73
2021/05/22 07:31:43;;;;;;;9.82;5.07;;;;;;;;;;4419140;32;20206;-71
2021/05/22 07:34:09;;;;;;;12.25;4.60;;;;;;;;;;4405805;32;20181;-71
2021/05/22 07:36:35;;;;;;;11.45;5.10;;;;;;;;;;4421373;32;20130;-71
2021/05/22 07:39:00;;;;;;;8.48;3.70;;;;;;;;;;4407271;32;20162;-70
2021/05/22 07:41:25;;;;;;;12.25;4.50;;;;;;;;;;4422849;32;20527;-70
2021/05/22 07:43:50;;;;;;;9.63;4.65;;;;;;;;;;4406920;32;20243;-70
2021/05/22 07:46:15;;;;;;;10.63;6.03;;;;;;;;;;4407108;32;20158;-70
2021/05/22 07:48:41;;;;;;;11.82;5.20;;;;;;;;;;4408548;32;20231;-70
2021/05/22 07:51:06;;;;;;;7.32;4.00;;;;;;;;;;4421473;32;20542;-70
2021/05/22 07:53:31;;;;;;;10.23;5.10;;;;;;;;;;4420103;32;20292;-70
2021/05/22 07:55:56;;;;;;;13.88;5.95;;;;;;;;;;4420116;32;20129;-70
2021/05/22 07:58:21;;;;;;;9.77;4.78;;;;;;;;;;4407214;32;20385;-70
2021/05/22 08:00:46;;;;;;;13.50;5.12;;;;;;;;;;4407113;32;20261;-71
2021/05/22 08:03:12;;;;;;;11.20;4.78;;;;;;;;;;4407733;32;20166;-70
2021/05/22 08:05:37;;;;;;;10.45;4.00;;;;;;;;;;4420816;32;20273;-71
2021/05/22 08:08:02;;;;;;;17.35;4.70;;;;;;;;;;4419741;32;20179;-71
2021/05/22 08:10:28;;;;;;;9.93;3.70;;;;;;;;;;4419194;32;20161;-71
2021/05/22 08:12:53;;;;;;;11.32;2.70;;;;;;;;;;4405372;32;20245;-68
2021/05/22 08:15:18;;;;;;;12.55;3.20;;;;;;;;;;4419730;32;20172;-69
2021/05/22 08:17:43;;;;;;;10.95;3.00;;;;;;;;;;4419701;32;20210;-70
2021/05/22 08:20:10;;;;;;;6.40;2.72;;;;;;;;;;4426349;32;20602;-70
2021/05/22 08:22:36;;;;;;;8.13;3.17;;;;;;;;;;4430434;32;20157;-70
2021/05/22 08:25:01;;;;;;;10.10;3.22;;;;;;;;;;4432381;32;20307;-69
2021/05/22 08:27:26;;;;;;;9.00;2.87;;;;;;;;;;4433892;32;20593;-70
2021/05/22 08:29:52;;;;;;;9.40;2.87;;;;;;;;;;4430465;32;20203;-69
2021/05/22 08:32:17;;;;;;;7.15;2.45;;;;;;;;;;4418938;32;20130;-70
2021/05/22 08:34:42;;;;;;;9.52;2.40;;;;;;;;;;4418771;32;20415;-70
2021/05/22 08:37:08;;;;;;;8.02;2.37;;;;;;;;;;4406362;32;20204;-70
2021/05/22 08:39:33;;;;;;;7.50;2.65;;;;;;;;;;4417202;32;20606;-70
2021/05/22 08:42:00;;;;;;;5.47;1.85;;;;;;;;;;4428312;32;20164;-72
2021/05/22 08:44:25;;;;;;;3.12;1.80;;;;;;;;;;4434570;32;20160;-70
2021/05/22 08:46:50;;;;;;;4.50;1.77;;;;;;;;;;4435486;32;20141;-69
2021/05/22 08:49:16;;;;;;;6.15;2.03;;;;;;;;;;4433437;32;20164;-69
2021/05/22 08:51:42;;;;;;;6.78;2.08;;;;;;;;;;4434872;32;20248;-69
2021/05/22 08:54:07;;;;;;;3.47;1.45;;;;;;;;;;4419950;32;20203;-69
2021/05/22 08:56:33;;;;;;;3.25;1.55;;;;;;;;;;4418157;32;20164;-69
2021/05/22 08:58:58;;;;;;;7.45;2.78;;;;;;;;;;4421786;32;20479;-70
2021/05/22 09:01:23;;;;;;;3.40;1.80;;;;;;;;;;4420635;32;20169;-69
2021/05/22 09:03:49;;;;;;;3.20;1.50;;;;;;;;;;4434135;32;20157;-71
2021/05/22 09:06:14;;;;;;;3.62;2.67;;;;;;;;;;4432283;32;20156;-70
2021/05/22 09:08:39;;;;;;;5.90;2.58;;;;;;;;;;4437124;32;20177;-70
2021/05/22 09:11:05;;;;;;;8.20;3.03;;;;;;;;;;4449225;32;20275;-71
2021/05/22 09:13:31;;;;;;;3.67;2.42;;;;;;;;;;4426167;32;20162;-70
2021/05/22 09:15:57;;;;;;;6.57;3.22;;;;;;;;;;4421128;32;20576;-71
2021/05/22 09:18:24;;;;;;;9.05;4.05;;;;;;;;;;4433444;32;20176;-70
2021/05/22 09:20:54;;;;;;;10.32;4.30;;;;;;;;;;4423289;32;20142;-70
2021/05/22 09:23:20;;;;;;;7.68;4.20;;;;;;;;;;4404794;32;20562;-70
2021/05/22 09:25:50;;;;;;;10.50;4.75;;;;;;;;;;4404983;32;20600;-70
2021/05/22 09:28:22;;;;;;;7.70;4.53;;;;;;;;;;4419631;32;20157;-70
2021/05/22 09:30:49;;;;;;;8.30;4.62;;;;;;;;;;4431734;32;20149;-70
2021/05/22 09:33:16;;;;;;;11.63;6.30;;;;;;;;;;4434289;32;20137;-69
2021/05/22 09:35:42;;;;;;;10.52;6.18;;;;;;;;;;4421236;32;20220;-70
2021/05/22 09:38:07;;;;;;;7.65;5.70;;;;;;;;;;4434066;32;20150;-69
2021/05/22 09:40:32;;;;;;;10.77;5.97;;;;;;;;;;4435382;32;20597;-70
2021/05/22 09:42:58;;;;;;;3.05;2.28;;;;;;;;;;4431286;32;20141;-70
2021/05/22 09:45:37;;;;;;;3.80;2.30;;;;;;;;;;4433549;32;20354;-70
2021/05/22 09:48:08;;;;;;;4.37;2.10;;;;;;;;;;4433968;32;20160;-70
2021/05/22 09:50:46;;;;;;;6.43;2.12;;;;;;;;;;4419278;32;20308;-70
2021/05/22 09:53:30;;;;;;;6.37;2.08;;;;;;;;;;4432207;32;20322;-69
2021/05/22 09:56:14;;;;;;;4.85;2.00;;;;;;;;;;4403714;32;20166;-69
2021/05/22 09:58:49;;;;;;;2.80;1.85;;;;;;;;;;4427234;32;20181;-70
2021/05/22 10:01:14;;;;;;;4.10;2.30;;;;;;;;;;4430061;32;20163;-69
2021/05/22 10:03:40;;;;;;;5.72;2.65;;;;;;;;;;4420794;32;20184;-70
2021/05/22 10:06:05;;;;;;;4.55;1.85;;;;;;;;;;4431448;32;20162;-69
2021/05/22 10:08:30;;;;;;;4.32;2.28;;;;;;;;;;4417665;32;20165;-70
2021/05/22 10:10:57;;;;;;;4.10;2.03;;;;;;;;;;4409482;32;20165;-70
2021/05/22 10:13:23;;;;;;;5.72;2.78;;;;;;;;;;4420287;32;20429;-70
2021/05/22 10:15:49;;;;;;;5.15;2.85;;;;;;;;;;4420082;32;20241;-69
2021/05/22 10:18:18;;;;;;;7.37;3.30;;;;;;;;;;4433670;32;20137;-68
2021/05/22 10:20:44;;;;;;;5.90;3.67;;;;;;;;;;4434003;32;20210;-69
2021/05/22 10:23:09;;;;;;;6.72;4.22;;;;;;;;;;4419403;32;20512;-70
2021/05/22 10:25:35;;;;;;;9.55;4.18;;;;;;;;;;4417671;32;20576;-69
2021/05/22 10:28:00;;;;;;;7.28;3.70;;;;;;;;;;4402475;32;20659;-69
2021/05/22 10:30:25;;;;;;;6.03;3.60;;;;;;;;;;4417371;32;20167;-69
2021/05/22 10:32:58;;;;;;;5.97;3.85;;;;;;;;;;4415869;32;20149;-69
2021/05/22 10:35:25;;;;;;;6.22;4.65;;;;;;;;;;4402715;32;20153;-69
2021/05/22 10:37:51;;;;;;;9.48;5.00;;;;;;;;;;4426527;32;20226;-72
2021/05/22 10:40:17;;;;;;;8.15;4.35;;;;;;;;;;4415944;32;20536;-69
2021/05/22 10:42:54;;;;;;;9.57;4.68;;;;;;;;;;4419930;32;20578;-69
2021/05/22 10:45:22;;;;;;;8.70;3.75;;;;;;;;;;4419214;32;20169;-69
2021/05/22 10:47:47;;;;;;;10.02;5.53;;;;;;;;;;4431462;32;20195;-69
2021/05/22 10:50:13;;;;;;;7.65;4.62;;;;;;;;;;4430993;32;20204;-69
2021/05/22 10:52:38;;;;;;;7.80;5.32;;;;;;;;;;4432069;32;20160;-69
2021/05/22 10:55:13;;;;;;;6.70;4.35;;;;;;;;;;4432778;32;20320;-69
2021/05/22 10:57:47;;;;;;;11.18;5.28;;;;;;;;;;4431459;32;20156;-69
2021/05/22 11:00:16;;;;;;;7.18;5.18;;;;;;;;;;4417379;32;20580;-69
2021/05/22 11:02:43;;;;;;;10.10;5.43;;;;;;;;;;4411921;32;20216;-69
2021/05/22 11:05:32;;;;;;;8.60;5.65;;;;;;;;;;4432470;32;20133;-69
2021/05/22 11:08:03;;;;;;;9.68;4.97;;;;;;;;;;4421599;32;20169;-69
2021/05/22 11:10:35;;;;;;;10.48;5.05;;;;;;;;;;4430860;32;20173;-69
2021/05/22 11:13:00;;;;;;;6.60;4.00;;;;;;;;;;4427528;32;20599;-69
2021/05/22 11:15:38;;;;;;;6.28;3.50;;;;;;;;;;4417324;32;20162;-69
2021/05/22 11:18:03;;;;;;;8.07;4.05;;;;;;;;;;4430611;32;20239;-69
2021/05/22 11:20:29;;;;;;;5.80;3.97;;;;;;;;;;4430799;32;20206;-70
2021/05/22 11:22:58;;;;;;;10.07;3.95;;;;;;;;;;4411362;32;20173;-69
2021/05/22 11:25:44;;;;;;;7.05;3.65;;;;;;;;;;4415904;32;20160;-68
2021/05/22 11:28:16;;;;;;;6.85;3.87;;;;;;;;;;4402269;32;20226;-69
2021/05/22 11:30:47;;;;;;;5.03;4.00;;;;;;;;;;4417321;32;20215;-69
2021/05/22 11:33:21;;;;;;;10.95;4.20;;;;;;;;;;4403525;32;20173;-70
2021/05/22 11:35:50;;;;;;;7.95;3.20;;;;;;;;;;4419566;32;20138;-69
2021/05/22 11:38:18;;;;;;;7.60;2.67;;;;;;;;;;4420121;32;20165;-69
2021/05/22 11:40:44;;;;;;;6.35;2.95;;;;;;;;;;4419864;32;20145;-69
2021/05/22 11:43:12;;;;;;;5.20;2.90;;;;;;;;;;4416175;32;20403;-69
2021/05/22 11:45:37;;;;;;;7.75;3.40;;;;;;;;;;4416038;32;20237;-70
2021/05/22 11:48:19;;;;;;;12.73;4.03;;;;;;;;;;4418407;32;20134;-69
2021/05/22 11:50:45;;;;;;;5.07;2.90;;;;;;;;;;4425666;32;20199;-69
2021/05/22 11:53:13;;;;;;;6.78;2.80;;;;;;;;;;4431723;32;20141;-69
2021/05/22 11:55:38;;;;;;;5.72;2.97;;;;;;;;;;4417458;32;20215;-69
2021/05/22 11:58:07;;;;;;;7.30;3.20;;;;;;;;;;4431924;32;20161;-70
2021/05/22 12:00:32;;;;;;;8.77;3.30;;;;;;;;;;4419571;32;20287;-70
2021/05/22 12:02:58;;;;;;;6.07;3.73;;;;;;;;;;4432587;32;20126;-69
2021/05/22 12:05:23;;;;;;;5.45;3.67;;;;;;;;;;4432889;32;20228;-69
2021/05/22 12:07:48;;;;;;;6.60;2.97;;;;;;;;;;4432406;32;20236;-69
2021/05/22 12:10:14;;;;;;;5.87;2.65;;;;;;;;;;4432267;32;20157;-69
2021/05/22 12:12:39;;;;;;;7.22;2.83;;;;;;;;;;4433471;32;20133;-69
2021/05/22 12:15:06;;;;;;;8.18;3.15;;;;;;;;;;4436870;32;20201;-69
2021/05/22 12:17:41;;;;;;;9.55;3.15;;;;;;;;;;4435370;32;20228;-69
2021/05/22 12:20:07;;;;;;;6.62;2.62;;;;;;;;;;4419533;32;20288;-68
2021/05/22 12:22:32;;;;;;;5.20;2.58;;;;;;;;;;4420728;32;20483;-69
2021/05/22 12:24:58;;;;;;;5.57;3.90;;;;;;;;;;4420117;32;20134;-69
2021/05/22 12:27:23;;;;;;;5.78;2.50;;;;;;;;;;4418924;32;20555;-69
2021/05/22 12:29:52;;;;;;;4.43;2.30;;;;;;;;;;4418807;32;20134;-69
2021/05/22 12:32:17;;;;;;;8.23;2.87;;;;;;;;;;4405103;32;20161;-69
2021/05/22 12:34:43;;;;;;;7.07;2.80;;;;;;;;;;4424570;32;20522;-71
2021/05/22 12:37:09;;;;;;;5.35;2.87;;;;;;;;;;4435786;32;20543;-69
2021/05/22 12:39:39;;;;;;;5.85;2.45;;;;;;;;;;4420589;32;20293;-69
2021/05/22 12:42:17;;;;;;;7.20;2.60;;;;;;;;;;4434132;32;20208;-69
2021/05/22 12:44:42;;;;;;;8.32;3.28;;;;;;;;;;4434379;32;20244;-69
2021/05/22 12:47:07;;;;;;;6.87;3.22;;;;;;;;;;4435077;32;20156;-70
2021/05/22 12:49:32;;;;;;;7.87;3.17;;;;;;;;;;4422511;32;20581;-70
2021/05/22 12:51:59;;;;;;;10.73;3.83;;;;;;;;;;4434380;32;20240;-69
2021/05/22 12:54:24;;;;;;;9.52;3.80;;;;;;;;;;4434220;32;20138;-70
2021/05/22 12:56:56;;;;;;;5.47;2.90;;;;;;;;;;4419317;32;20250;-69
2021/05/22 12:59:22;;;;;;;7.12;2.42;;;;;;;;;;4434899;32;20176;-69
2021/05/22 13:02:07;;;;;;;5.95;2.60;;;;;;;;;;4420944;32;20164;-69
2021/05/22 13:04:32;;;;;;;9.20;2.90;;;;;;;;;;4427542;32;20647;-69
2021/05/22 13:06:57;;;;;;;16.43;3.53;;;;;;;;;;4417667;32;20208;-70
2021/05/22 13:09:22;;;;;;;7.50;3.15;;;;;;;;;;4420247;32;20292;-70
2021/05/22 13:11:57;;;;;;;7.82;2.87;;;;;;;;;;4420912;32;20255;-70
2021/05/22 13:14:23;;;;;;;8.60;2.75;;;;;;;;;;4433443;32;20224;-70
2021/05/22 13:16:57;;;;;;;9.30;2.65;;;;;;;;;;4420384;32;20172;-69
2021/05/22 13:19:38;;;;;;;4.82;2.47;;;;;;;;;;4433213;32;20193;-69
2021/05/22 13:22:20;;;;;;;5.80;2.22;;;;;;;;;;4434204;32;20179;-69
2021/05/22 13:25:02;;;;;;;8.43;2.70;;;;;;;;;;4433391;32;20204;-70
2021/05/22 13:27:27;;;;;;;7.32;2.60;;;;;;;;;;4435726;32;20186;-69
2021/05/22 13:29:59;;;;;;;8.57;3.40;;;;;;;;;;4433546;32;20205;-68
2021/05/22 13:32:24;;;;;;;9.43;3.33;;;;;;;;;;4420645;32;20169;-70
2021/05/22 13:34:50;;;;;;;6.25;3.53;;;;;;;;;;4434044;32;20161;-69
2021/05/22 13:37:16;;;;;;;7.62;3.65;;;;;;;;;;4435196;32;20572;-69
2021/05/22 13:39:41;;;;;;;8.20;3.30;;;;;;;;;;4435766;32;20142;-69
2021/05/22 13:42:06;;;;;;;5.07;2.92;;;;;;;;;;4435044;32;20291;-69
2021/05/22 13:44:32;;;;;;;6.10;2.42;;;;;;;;;;4419695;32;20620;-69
2021/05/22 13:46:57;;;;;;;7.95;2.40;;;;;;;;;;4420867;32;20245;-70
2021/05/22 13:49:23;;;;;;;4.87;2.10;;;;;;;;;;4432859;32;20210;-68
2021/05/22 13:51:48;;;;;;;5.12;1.87;;;;;;;;;;4435378;32;20212;-69
2021/05/22 13:54:14;;;;;;;3.90;1.83;;;;;;;;;;4422049;32;20184;-69
2021/05/22 13:56:39;;;;;;;5.82;1.98;;;;;;;;;;4433584;32;20188;-68
2021/05/22 13:59:05;;;;;;;5.70;2.12;;;;;;;;;;4432702;32;20276;-69
2021/05/22 14:01:30;;;;;;;4.80;1.98;;;;;;;;;;4427448;32;20129;-72
2021/05/22 14:03:56;;;;;;;6.37;2.40;;;;;;;;;;4433369;32;20150;-70
2021/05/22 14:06:22;;;;;;;6.70;2.83;;;;;;;;;;4433856;32;20160;-69
2021/05/22 14:08:47;;;;;;;6.62;2.72;;;;;;;;;;4431429;32;20185;-69
2021/05/22 14:11:12;;;;;;;4.00;2.40;;;;;;;;;;4432478;32;20190;-70
2021/05/22 14:13:38;;;;;;;6.28;2.37;;;;;;;;;;4434582;32;20169;-71
2021/05/22 14:16:05;;;;;;;5.18;1.80;;;;;;;;;;4436270;32;20186;-70
2021/05/22 14:18:30;;;;;;;6.78;1.83;;;;;;;;;;4421579;32;20454;-69
2021/05/22 14:20:56;;;;;;;5.47;1.60;;;;;;;;;;4434966;32;20182;-71
2021/05/22 14:23:21;;;;;;;5.10;1.70;;;;;;;;;;4435049;32;20714;-69
2021/05/22 14:25:47;;;;;;;4.62;1.90;;;;;;;;;;4419377;32;20288;-70
2021/05/22 14:28:12;;;;;;;8.07;2.28;;;;;;;;;;4434726;32;20137;-70
2021/05/22 14:30:37;;;;;;;5.35;2.70;;;;;;;;;;4434054;32;20141;-69
2021/05/22 14:33:03;;;;;;;4.25;3.10;;;;;;;;;;4417218;32;20280;-70
2021/05/22 14:35:29;;;;;;;5.47;2.60;;;;;;;;;;4432552;32;20451;-69
2021/05/22 14:37:54;;;;;;;6.65;2.78;;;;;;;;;;4419414;32;20652;-70
2021/05/22 14:40:20;;;;;;;5.18;2.60;;;;;;;;;;4412920;32;20169;-70